createdAt,value
2023-04-11T00:01:07.656Z,67.33
2023-04-11T00:03:34.576Z,66.11
2023-04-11T00:06:01.275Z,67.12
2023-04-11T00:08:27.743Z,66.00
2023-04-11T00:10:54.225Z,66.27
2023-04-11T00:13:20.761Z,67.85
2023-04-11T00:15:47.936Z,66.75
2023-04-11T00:18:14.477Z,67.05
2023-04-11T00:20:40.904Z,68.24
2023-04-11T00:23:08.837Z,67.63
2023-04-11T00:25:37.180Z,67.87
2023-04-11T00:28:03.692Z,67.96
2023-04-11T00:30:30.282Z,68.03
2023-04-11T00:32:56.780Z,68.07
2023-04-11T00:35:23.456Z,68.51
2023-04-11T00:37:55.859Z,68.26
2023-04-11T00:40:22.345Z,68.72
2023-04-11T00:42:48.837Z,68.21
2023-04-11T00:45:15.606Z,68.42
2023-04-11T00:47:42.123Z,68.50
2023-04-11T00:50:09.056Z,69.15
2023-04-11T00:52:36.287Z,69.06
2023-04-11T00:55:03.363Z,68.53
2023-04-11T00:57:30.848Z,68.13
2023-04-11T00:59:58.276Z,67.70
2023-04-11T01:02:25.045Z,67.84
2023-04-11T01:04:51.675Z,67.83
2023-04-11T01:07:18.298Z,69.35
2023-04-11T01:09:44.772Z,69.04
2023-04-11T01:12:11.591Z,69.35
2023-04-11T01:14:38.415Z,69.12
2023-04-11T01:17:05.089Z,68.82
2023-04-11T01:19:31.813Z,69.52
2023-04-11T01:21:58.670Z,68.97
2023-04-11T01:24:25.212Z,69.09
2023-04-11T01:26:52.001Z,69.22
2023-04-11T01:29:18.653Z,69.26
2023-04-11T01:31:45.166Z,69.31
2023-04-11T01:34:14.007Z,69.85
2023-04-11T01:36:41.637Z,69.76
2023-04-11T01:39:08.179Z,70.41
2023-04-11T01:41:35.333Z,72.40
2023-04-11T01:44:02.969Z,71.56
2023-04-11T01:46:29.553Z,71.51
2023-04-11T01:48:56.354Z,71.94
2023-04-11T01:51:23.204Z,71.81
2023-04-11T01:53:49.745Z,72.24
2023-04-11T01:56:16.304Z,72.51
2023-04-11T01:58:42.815Z,72.46
2023-04-11T02:01:09.334Z,74.31
2023-04-11T02:03:37.065Z,73.05
2023-04-11T02:06:03.992Z,72.40
2023-04-11T02:08:30.587Z,73.32
2023-04-11T02:10:57.055Z,72.92
2023-04-11T02:13:23.597Z,73.38
2023-04-11T02:15:50.250Z,73.49
2023-04-11T02:18:16.787Z,73.58
2023-04-11T02:20:43.310Z,73.23
2023-04-11T02:23:09.870Z,72.71
2023-04-11T02:25:37.033Z,73.23
2023-04-11T02:28:04.220Z,73.30
2023-04-11T02:30:32.132Z,74.43
2023-04-11T02:32:58.668Z,73.33
2023-04-11T02:35:26.239Z,73.45
2023-04-11T02:37:52.718Z,73.39
2023-04-11T02:40:19.238Z,73.98
2023-04-11T02:42:45.823Z,73.24
2023-04-11T02:45:12.268Z,73.98
2023-04-11T02:47:39.475Z,74.02
2023-04-11T02:50:06.806Z,73.74
2023-04-11T02:52:33.692Z,74.74
2023-04-11T02:55:00.451Z,73.41
2023-04-11T02:57:27.537Z,75.35
2023-04-11T02:59:54.038Z,76.41
2023-04-11T03:02:23.245Z,78.78
2023-04-11T03:04:50.166Z,77.79
2023-04-11T03:07:16.659Z,78.69
2023-04-11T03:09:43.323Z,78.14
2023-04-11T03:12:09.903Z,79.29
2023-04-11T03:14:36.367Z,79.35
2023-04-11T03:17:02.820Z,79.32
2023-04-11T03:19:29.293Z,79.07
2023-04-11T03:21:55.897Z,79.79
2023-04-11T03:24:22.428Z,80.71
2023-04-11T03:26:48.971Z,79.51
2023-04-11T03:29:16.492Z,81.13
2023-04-11T03:31:43.078Z,82.48
2023-04-11T03:34:09.676Z,80.94
2023-04-11T03:36:36.148Z,82.48
2023-04-11T03:39:02.897Z,82.16
2023-04-11T03:41:29.513Z,83.22
2023-04-11T03:43:55.972Z,83.30
2023-04-11T03:46:22.548Z,81.57
2023-04-11T03:48:49.153Z,83.06
2023-04-11T03:51:15.809Z,82.50
2023-04-11T03:53:42.308Z,82.55
2023-04-11T03:56:09.476Z,83.07
2023-04-11T03:58:36.121Z,84.00
2023-04-11T04:01:02.665Z,85.22
2023-04-11T04:03:29.393Z,83.42
2023-04-11T04:05:56.022Z,82.91
2023-04-11T04:08:22.473Z,83.58
2023-04-11T04:10:49.231Z,84.22
2023-04-11T04:13:15.742Z,84.62
2023-04-11T04:15:42.332Z,84.09
2023-04-11T04:18:08.825Z,84.30
2023-04-11T04:20:35.346Z,84.31
2023-04-11T04:23:04.477Z,83.78
2023-04-11T04:25:30.993Z,84.89
2023-04-11T04:27:58.134Z,84.10
2023-04-11T04:30:28.562Z,84.28
2023-04-11T04:32:59.319Z,85.06
2023-04-11T04:35:26.452Z,85.55
2023-04-11T04:37:54.104Z,84.94
2023-04-11T04:40:21.403Z,84.60
2023-04-11T04:42:58.114Z,84.14
2023-04-11T04:45:25.824Z,84.61
2023-04-11T04:47:52.336Z,86.33
2023-04-11T04:50:19.641Z,85.57
2023-04-11T04:52:46.560Z,85.63
2023-04-11T04:55:13.818Z,86.06
2023-04-11T04:57:40.523Z,85.97
2023-04-11T05:00:09.660Z,86.14
2023-04-11T05:02:37.904Z,86.64
2023-04-11T05:05:05.186Z,86.87
2023-04-11T05:07:31.821Z,86.75
2023-04-11T05:09:58.310Z,86.48
2023-04-11T05:12:27.097Z,87.14
2023-04-11T05:14:55.441Z,87.38
2023-04-11T05:17:24.670Z,87.30
2023-04-11T05:19:52.200Z,88.00
2023-04-11T05:22:18.785Z,87.47
2023-04-11T05:24:45.322Z,87.14
2023-04-11T05:27:13.249Z,87.74
2023-04-11T05:29:39.966Z,87.19
2023-04-11T05:32:06.423Z,87.07
2023-04-11T05:34:34.244Z,86.55
2023-04-11T05:37:01.413Z,86.10
2023-04-11T05:39:27.926Z,87.10
2023-04-11T05:41:54.414Z,87.08
2023-04-11T05:44:21.221Z,86.98
2023-04-11T05:46:47.701Z,87.88
2023-04-11T05:49:14.144Z,88.29
2023-04-11T05:51:40.652Z,88.91
2023-04-11T05:54:07.125Z,88.35
2023-04-11T05:56:35.146Z,88.10
2023-04-11T05:59:01.738Z,87.22
2023-04-11T06:01:28.171Z,87.08
2023-04-11T06:03:54.774Z,86.54
2023-04-11T06:06:21.532Z,86.85
2023-04-11T06:08:48.401Z,86.67
2023-04-11T06:11:14.867Z,85.51
2023-04-11T06:13:41.767Z,86.62
2023-04-11T06:16:08.451Z,87.11
2023-04-11T06:18:34.978Z,86.85
2023-04-11T06:21:01.480Z,85.67
2023-04-11T06:23:27.985Z,85.70
2023-04-11T06:25:54.476Z,85.46
2023-04-11T06:28:21.014Z,85.96
2023-04-11T06:30:47.505Z,85.83
2023-04-11T06:33:14.003Z,85.96
2023-04-11T06:35:40.695Z,86.69
2023-04-11T06:38:07.212Z,86.97
2023-04-11T06:40:33.809Z,85.78
2023-04-11T06:43:01.800Z,86.67
2023-04-11T06:45:28.276Z,86.31
2023-04-11T06:47:54.775Z,86.33
2023-04-11T06:50:21.377Z,86.96
2023-04-11T06:52:47.833Z,86.63
2023-04-11T06:55:15.471Z,87.80
2023-04-11T06:57:43.118Z,87.46
2023-04-11T07:00:12.226Z,88.62
2023-04-11T07:02:39.520Z,88.76
2023-04-11T07:05:06.747Z,89.36
2023-04-11T07:07:33.312Z,89.77
2023-04-11T07:09:59.780Z,89.05
2023-04-11T07:12:26.364Z,89.20
2023-04-11T07:14:52.941Z,88.68
2023-04-11T07:17:19.395Z,88.43
2023-04-11T07:19:46.683Z,89.34
2023-04-11T07:22:13.146Z,88.59
2023-04-11T07:24:39.604Z,87.99
2023-04-11T07:27:06.762Z,87.22
2023-04-11T07:29:33.227Z,88.72
2023-04-11T07:31:59.732Z,89.56
2023-04-11T07:34:26.612Z,89.73
2023-04-11T07:36:53.129Z,90.49
2023-04-11T07:39:19.682Z,90.06
2023-04-11T07:41:46.254Z,89.52
2023-04-11T07:44:12.797Z,88.92
2023-04-11T07:46:39.249Z,88.83
2023-04-11T07:49:06.014Z,86.36
2023-04-11T07:51:33.042Z,87.44
2023-04-11T07:53:59.614Z,85.77
2023-04-11T07:56:26.259Z,85.95
2023-04-11T07:58:52.711Z,86.82
2023-04-11T08:01:20.593Z,86.53
2023-04-11T08:03:47.257Z,84.18
2023-04-11T08:06:13.862Z,84.83
2023-04-11T08:08:40.321Z,84.30
2023-04-11T08:11:07.023Z,84.00
2023-04-11T08:13:33.478Z,86.08
2023-04-11T08:16:00.012Z,86.22
2023-04-11T08:18:26.558Z,86.73
2023-04-11T08:20:53.439Z,85.76
2023-04-11T08:23:21.581Z,85.22
2023-04-11T08:25:48.436Z,86.67
2023-04-11T08:28:15.178Z,88.73
2023-04-11T08:30:42.069Z,91.05
2023-04-11T08:33:10.094Z,87.49
2023-04-11T08:35:37.642Z,86.74
2023-04-11T08:38:04.163Z,86.97
2023-04-11T08:40:30.749Z,87.73
2023-04-11T08:43:00.735Z,85.84
2023-04-11T08:45:27.459Z,83.65
2023-04-11T08:47:54.367Z,87.22
2023-04-11T08:50:20.900Z,86.23
2023-04-11T08:52:47.366Z,85.46
2023-04-11T08:55:13.885Z,85.34
2023-04-11T08:57:40.394Z,87.06
2023-04-11T09:00:19.029Z,86.87
2023-04-11T09:03:00.575Z,85.33
2023-04-11T09:05:28.404Z,86.33
2023-04-11T09:07:55.180Z,84.95
2023-04-11T09:10:22.266Z,84.09
2023-04-11T09:12:48.775Z,84.39
2023-04-11T09:15:19.803Z,82.38
2023-04-11T09:17:46.305Z,81.30
2023-04-11T09:20:31.523Z,83.01
2023-04-11T09:22:58.997Z,83.35
2023-04-11T09:25:25.573Z,82.25
2023-04-11T09:28:08.048Z,81.38
2023-04-11T09:30:34.762Z,81.10
2023-04-11T09:33:18.015Z,80.82
2023-04-11T09:35:47.242Z,81.40
2023-04-11T09:38:13.768Z,82.18
2023-04-11T09:40:43.632Z,79.47
2023-04-11T09:43:10.083Z,80.90
2023-04-11T09:45:47.744Z,81.35
2023-04-11T09:48:18.590Z,79.67
2023-04-11T09:50:45.233Z,80.14
2023-04-11T09:53:11.691Z,80.86
2023-04-11T09:55:38.765Z,81.53
2023-04-11T09:58:05.632Z,80.70
2023-04-11T10:00:32.509Z,80.64
2023-04-11T10:02:59.387Z,79.90
2023-04-11T10:05:27.448Z,77.57
2023-04-11T10:08:02.431Z,77.67
2023-04-11T10:10:28.919Z,77.67
2023-04-11T10:12:55.558Z,77.35
2023-04-11T10:15:22.461Z,78.56
2023-04-11T10:18:15.410Z,79.10
2023-04-11T10:20:43.602Z,78.60
2023-04-11T10:23:10.859Z,79.21
2023-04-11T10:25:50.604Z,80.44
2023-04-11T10:28:49.646Z,82.11
2023-04-11T10:31:17.813Z,80.49
2023-04-11T10:34:21.100Z,82.07
2023-04-11T10:37:01.777Z,79.91
2023-04-11T10:40:12.418Z,80.09
2023-04-11T10:42:46.424Z,78.47
2023-04-11T10:45:22.146Z,81.05
2023-04-11T10:47:51.503Z,79.19
2023-04-11T10:50:27.216Z,79.46
2023-04-11T10:53:00.488Z,76.98
2023-04-11T10:55:28.611Z,77.95
2023-04-11T10:58:08.303Z,76.41
2023-04-11T11:00:47.502Z,76.07
2023-04-11T11:03:18.287Z,75.08
2023-04-11T11:05:45.048Z,74.98
2023-04-11T11:08:11.650Z,73.08
2023-04-11T11:10:47.826Z,74.29
2023-04-11T11:13:15.211Z,74.57
2023-04-11T11:15:47.233Z,72.63
2023-04-11T11:18:14.693Z,72.16
2023-04-11T11:20:41.225Z,72.07
2023-04-11T11:23:09.247Z,71.64
2023-04-11T11:25:36.161Z,71.45
2023-04-11T11:28:03.381Z,69.51
2023-04-11T11:30:29.965Z,67.50
2023-04-11T11:32:57.153Z,70.83
2023-04-11T11:35:24.129Z,68.92
2023-04-11T11:37:53.947Z,64.87
2023-04-11T11:40:22.160Z,63.46
2023-04-11T11:42:49.755Z,62.83
2023-04-11T11:45:22.557Z,62.61
2023-04-11T11:47:49.844Z,60.08
2023-04-11T11:50:27.118Z,62.06
2023-04-11T11:52:53.679Z,57.92
2023-04-11T11:55:20.045Z,59.87
2023-04-11T11:57:50.098Z,57.31
2023-04-11T12:00:27.125Z,57.22
2023-04-11T12:02:54.697Z,57.75
2023-04-11T12:05:23.968Z,55.75
2023-04-11T12:07:53.493Z,56.49
2023-04-11T12:10:20.059Z,56.51
2023-04-11T12:12:53.684Z,57.47
2023-04-11T12:15:22.113Z,56.01
2023-04-11T12:17:49.863Z,54.83
2023-04-11T12:20:16.501Z,56.79
2023-04-11T12:22:43.060Z,53.50
2023-04-11T12:25:10.440Z,50.90
2023-04-11T12:27:37.796Z,51.31
2023-04-11T12:30:04.839Z,52.22
2023-04-11T12:32:33.868Z,50.83
2023-04-11T12:35:00.967Z,50.14
2023-04-11T12:37:27.583Z,49.59
2023-04-11T12:39:54.059Z,49.30
2023-04-11T12:42:23.794Z,49.32
2023-04-11T12:44:53.224Z,51.49
2023-04-11T12:47:19.680Z,50.99
2023-04-11T12:49:46.179Z,49.60
2023-04-11T12:52:12.727Z,47.45
2023-04-11T12:54:39.226Z,44.78
2023-04-11T12:57:05.758Z,41.82
2023-04-11T12:59:32.582Z,43.07
2023-04-11T13:01:59.314Z,39.49
2023-04-11T13:04:26.032Z,41.10
2023-04-11T13:06:52.654Z,41.12
2023-04-11T13:09:19.123Z,40.80
2023-04-11T13:11:45.714Z,40.53
2023-04-11T13:14:12.212Z,39.99
2023-04-11T13:16:38.752Z,40.01
2023-04-11T13:19:05.372Z,38.81
2023-04-11T13:21:32.525Z,37.60
2023-04-11T13:23:59.052Z,37.37
2023-04-11T13:26:25.533Z,36.82
2023-04-11T13:28:52.073Z,37.55
2023-04-11T13:31:19.354Z,37.89
2023-04-11T13:33:47.918Z,37.91
2023-04-11T13:36:14.484Z,38.92
2023-04-11T13:38:41.252Z,37.40
2023-04-11T13:41:07.761Z,41.38
2023-04-11T13:43:34.412Z,41.65
2023-04-11T13:46:01.006Z,41.04
2023-04-11T13:48:27.490Z,42.20
2023-04-11T13:50:57.461Z,43.14
2023-04-11T13:53:24.281Z,42.93
2023-04-11T13:55:51.251Z,43.10
2023-04-11T13:58:18.620Z,45.31
2023-04-11T14:00:45.383Z,53.17
2023-04-11T14:03:12.044Z,58.15
2023-04-11T14:05:38.733Z,64.58
2023-04-11T14:08:06.008Z,63.99
2023-04-11T14:10:32.859Z,61.45
2023-04-11T14:13:00.772Z,59.67
2023-04-11T14:15:27.263Z,58.42
2023-04-11T14:17:53.840Z,56.86
2023-04-11T14:20:20.541Z,59.36
2023-04-11T14:22:47.049Z,58.41
2023-04-11T14:25:13.725Z,58.24
2023-04-11T14:27:41.173Z,56.34
2023-04-11T14:30:12.130Z,55.96
2023-04-11T14:32:39.436Z,55.29
2023-04-11T14:35:08.246Z,56.23
2023-04-11T14:37:34.709Z,54.00
2023-04-11T14:40:01.559Z,54.26
2023-04-11T14:42:28.109Z,53.95
2023-04-11T14:44:54.553Z,53.35
2023-04-11T14:47:21.268Z,53.27
2023-04-11T14:49:47.925Z,52.19
2023-04-11T14:52:14.420Z,51.94
2023-04-11T14:54:41.087Z,52.02
2023-04-11T14:57:07.595Z,51.93
2023-04-11T14:59:34.140Z,53.36
2023-04-11T15:02:01.242Z,51.97
2023-04-11T15:04:27.890Z,52.26
2023-04-11T15:06:54.436Z,51.63
2023-04-11T15:09:21.303Z,49.26
2023-04-11T15:11:48.720Z,47.75
2023-04-11T15:14:15.200Z,47.88
2023-04-11T15:16:41.827Z,48.61
2023-04-11T15:19:09.676Z,45.92
2023-04-11T15:21:36.398Z,45.27
2023-04-11T15:24:07.204Z,45.14
2023-04-11T15:26:34.119Z,44.96
2023-04-11T15:29:00.792Z,44.21
2023-04-11T15:31:27.388Z,46.44
2023-04-11T15:33:55.006Z,44.99
2023-04-11T15:36:22.351Z,45.61
2023-04-11T15:38:48.861Z,46.47
2023-04-11T15:41:15.350Z,45.54
2023-04-11T15:43:43.096Z,45.42
2023-04-11T15:46:10.183Z,44.43
2023-04-11T15:48:37.846Z,45.75
2023-04-11T15:51:11.021Z,46.27
2023-04-11T15:53:37.527Z,45.41
2023-04-11T15:56:06.371Z,45.21
2023-04-11T15:58:33.814Z,44.78
2023-04-11T16:01:01.604Z,44.52
2023-04-11T16:03:34.448Z,43.52
2023-04-11T16:06:01.301Z,44.46
2023-04-11T16:08:27.767Z,45.29
2023-04-11T16:10:54.312Z,45.15
2023-04-11T16:13:20.896Z,46.24
2023-04-11T16:15:47.378Z,46.36
2023-04-11T16:18:13.893Z,48.44
2023-04-11T16:20:40.421Z,50.53
2023-04-11T16:23:06.935Z,50.32
2023-04-11T16:25:33.484Z,49.44
2023-04-11T16:27:59.944Z,50.17
2023-04-11T16:30:27.867Z,49.96
2023-04-11T16:32:54.535Z,51.00
2023-04-11T16:35:21.135Z,50.76
2023-04-11T16:37:47.663Z,50.85
2023-04-11T16:40:14.388Z,48.78
2023-04-11T16:42:41.072Z,49.57
2023-04-11T16:45:08.731Z,49.67
2023-04-11T16:47:35.661Z,49.27
2023-04-11T16:50:02.253Z,49.18
2023-04-11T16:52:29.272Z,50.29
2023-04-11T16:54:55.934Z,50.20
2023-04-11T16:57:22.441Z,51.09
2023-04-11T16:59:48.896Z,49.66
2023-04-11T17:02:16.225Z,50.91
2023-04-11T17:04:42.886Z,50.69
2023-04-11T17:07:09.700Z,51.04
2023-04-11T17:09:36.213Z,51.06
2023-04-11T17:12:03.361Z,51.57
2023-04-11T17:14:30.967Z,51.25
2023-04-11T17:16:57.519Z,51.35
2023-04-11T17:19:25.214Z,52.44
2023-04-11T17:21:52.141Z,51.83
2023-04-11T17:24:18.671Z,52.43
2023-04-11T17:26:45.338Z,53.30
2023-04-11T17:29:11.993Z,53.22
2023-04-11T17:31:38.588Z,53.28
2023-04-11T17:34:05.091Z,53.02
2023-04-11T17:36:31.544Z,53.63
2023-04-11T17:38:58.122Z,54.00
2023-04-11T17:41:24.583Z,55.45
2023-04-11T17:43:51.119Z,54.71
2023-04-11T17:46:17.719Z,54.63
2023-04-11T17:48:44.180Z,55.03
2023-04-11T17:51:10.842Z,55.37
2023-04-11T17:53:37.368Z,56.91
2023-04-11T17:56:05.669Z,59.63
2023-04-11T17:58:32.514Z,61.49
2023-04-11T18:00:59.455Z,61.16
2023-04-11T18:03:26.457Z,65.16
2023-04-11T18:05:54.192Z,64.49
2023-04-11T18:08:26.013Z,64.27
2023-04-11T18:10:59.688Z,65.69
2023-04-11T18:13:27.507Z,64.84
2023-04-11T18:15:54.146Z,65.99
2023-04-11T18:18:20.737Z,66.92
2023-04-11T18:20:47.255Z,65.99
2023-04-11T18:23:13.715Z,66.68
2023-04-11T18:25:40.221Z,65.64
2023-04-11T18:28:06.810Z,66.44
2023-04-11T18:30:33.257Z,64.26
2023-04-11T18:32:59.761Z,67.57
2023-04-11T18:35:26.581Z,68.97
2023-04-11T18:37:54.013Z,69.58
2023-04-11T18:40:20.519Z,72.53
2023-04-11T18:42:49.113Z,71.34
2023-04-11T18:45:21.215Z,72.06
2023-04-11T18:47:47.780Z,69.64
2023-04-11T18:50:15.076Z,69.19
2023-04-11T18:52:41.758Z,69.21
2023-04-11T18:55:10.018Z,71.12
2023-04-11T18:57:38.230Z,74.28
2023-04-11T19:00:18.672Z,74.95
2023-04-11T19:02:46.722Z,75.03
2023-04-11T19:05:14.309Z,75.82
2023-04-11T19:07:44.155Z,75.88
2023-04-11T19:10:11.306Z,77.75
2023-04-11T19:12:38.269Z,78.12
2023-04-11T19:15:08.856Z,78.55
2023-04-11T19:17:36.578Z,78.70
2023-04-11T19:20:06.698Z,78.63
2023-04-11T19:22:34.084Z,79.83
2023-04-11T19:25:00.691Z,81.17
2023-04-11T19:27:27.229Z,80.39
2023-04-11T19:29:53.693Z,79.90
2023-04-11T19:32:20.432Z,80.19
2023-04-11T19:34:47.724Z,80.05
2023-04-11T19:37:16.339Z,80.84
2023-04-11T19:39:43.739Z,80.77
2023-04-11T19:42:10.573Z,81.48
2023-04-11T19:44:37.595Z,81.92
2023-04-11T19:47:04.081Z,82.47
2023-04-11T19:49:30.653Z,82.61
2023-04-11T19:51:57.132Z,84.05
2023-04-11T19:54:23.776Z,83.70
2023-04-11T19:56:53.488Z,84.05
2023-04-11T19:59:20.224Z,84.09
2023-04-11T20:01:47.570Z,83.32
2023-04-11T20:04:15.955Z,84.42
2023-04-11T20:06:44.208Z,83.81
2023-04-11T20:09:11.886Z,83.70
2023-04-11T20:11:39.276Z,83.58
2023-04-11T20:14:07.379Z,82.95
2023-04-11T20:16:34.030Z,83.25
2023-04-11T20:19:01.530Z,84.79
2023-04-11T20:21:28.388Z,84.69
2023-04-11T20:23:55.049Z,85.42
2023-04-11T20:26:21.741Z,84.98
2023-04-11T20:28:49.659Z,86.16
2023-04-11T20:31:16.300Z,86.11
2023-04-11T20:33:44.038Z,86.23
2023-04-11T20:36:11.143Z,86.16
2023-04-11T20:38:37.795Z,85.41
2023-04-11T20:41:05.592Z,84.69
2023-04-11T20:43:32.227Z,84.03
2023-04-11T20:45:58.749Z,83.97
2023-04-11T20:48:25.840Z,84.06
2023-04-11T20:50:53.488Z,84.92
2023-04-11T20:53:20.036Z,85.13
2023-04-11T20:55:46.512Z,86.08
2023-04-11T20:58:17.007Z,86.77
2023-04-11T21:00:44.474Z,87.08
2023-04-11T21:03:11.320Z,87.04
2023-04-11T21:05:37.967Z,88.05
2023-04-11T21:08:06.417Z,87.27
2023-04-11T21:10:32.909Z,87.99
2023-04-11T21:12:59.385Z,88.29
2023-04-11T21:15:25.934Z,86.66
2023-04-11T21:17:52.593Z,86.41
2023-04-11T21:20:20.112Z,85.42
2023-04-11T21:22:52.931Z,86.29
2023-04-11T21:25:19.427Z,86.23
2023-04-11T21:27:46.369Z,87.17
2023-04-11T21:30:13.388Z,87.80
2023-04-11T21:32:40.044Z,86.95
2023-04-11T21:35:08.082Z,87.76
2023-04-11T21:37:34.745Z,86.85
2023-04-11T21:40:01.238Z,86.14
2023-04-11T21:42:27.742Z,85.76
2023-04-11T21:44:54.304Z,86.63
2023-04-11T21:47:21.355Z,87.35
2023-04-11T21:49:47.896Z,87.65
2023-04-11T21:52:14.372Z,87.86
2023-04-11T21:54:42.851Z,87.82
2023-04-11T21:57:09.468Z,88.20
2023-04-11T21:59:35.983Z,87.46
2023-04-11T22:02:02.776Z,87.00
2023-04-11T22:04:29.513Z,87.54
2023-04-11T22:06:58.983Z,87.91
2023-04-11T22:09:25.480Z,87.46
2023-04-11T22:11:52.421Z,86.96
2023-04-11T22:14:20.468Z,87.76
2023-04-11T22:16:49.910Z,88.49
2023-04-11T22:19:17.936Z,88.11
2023-04-11T22:21:55.716Z,87.86
2023-04-11T22:24:30.855Z,88.23
2023-04-11T22:26:58.490Z,89.01
2023-04-11T22:29:30.247Z,89.35
2023-04-11T22:32:00.580Z,89.06
2023-04-11T22:34:27.286Z,89.54
2023-04-11T22:36:53.905Z,89.22
2023-04-11T22:39:21.511Z,89.40
2023-04-11T22:41:51.682Z,89.23
2023-04-11T22:44:18.202Z,89.18
2023-04-11T22:46:59.028Z,88.68
2023-04-11T22:49:25.538Z,88.45
2023-04-11T22:51:59.290Z,89.62
2023-04-11T22:54:27.011Z,89.50
2023-04-11T22:56:56.472Z,89.28
2023-04-11T22:59:24.216Z,88.72
2023-04-11T23:01:51.332Z,88.40
2023-04-11T23:04:18.242Z,88.48
2023-04-11T23:06:48.650Z,88.42
2023-04-11T23:09:15.187Z,88.12
2023-04-11T23:11:41.904Z,88.74
2023-04-11T23:14:08.415Z,88.69
2023-04-11T23:16:34.912Z,88.41
2023-04-11T23:19:01.421Z,88.72
2023-04-11T23:21:29.227Z,89.09
2023-04-11T23:23:56.647Z,88.71
2023-04-11T23:26:24.185Z,88.86
2023-04-11T23:28:50.819Z,88.89
2023-04-11T23:31:19.807Z,88.45
2023-04-11T23:33:46.428Z,88.47
2023-04-11T23:36:13.709Z,88.09
2023-04-11T23:38:40.237Z,88.45
2023-04-11T23:41:07.049Z,88.33
2023-04-11T23:43:33.730Z,88.78
2023-04-11T23:46:00.723Z,89.42
2023-04-11T23:48:27.261Z,90.30
2023-04-11T23:50:53.754Z,90.36
2023-04-11T23:53:20.684Z,90.91
2023-04-11T23:55:47.148Z,91.25
2023-04-11T23:58:13.635Z,90.73
